Song, Beatrice
United StatesWomanBorn 19612003 – 2025Runner id 37124
Events
70
2003 – 2025
Best pace
9.749
km/h · 2008
Best finish
27th
of 165 · 2009
Distance raced
4,341
km · splits not double-counted
Pace over time
km/h · higher is faster
Pace over time: 70 races from 2003 to 2025, ranging from 4.17 to 10.48 kilometres per hour, where higher is faster. A second, age-graded series is drawn above it; the gap between the two is the age credit.
- Actual pace
- Age-graded pace
Results
| Date | Event | Distance | Result | Pace km/h | Placing |
|---|---|---|---|---|---|
| 2003-08-03 | Skyline 50k Endurance RunUnited States | 50km | 5:25:38 h | 9.213 | 54/162 |
| 2003-11-08 | 50km | 5:16:55 h | 9.466 | 17/32 | |
| 2004-03-27 | 50km | 6:14:10 h | 8.018 | 19/41 | |
| 2004-05-08 | Quicksilver 50 km Endurance RunUnited States | 50km | 5:47:02 h | 8.645 | 29/80 |
| 2004-06-05 | 50km | 7:34:22 h | 6.603 | 20/31 | |
| 2004-06-19 | 50km | 5:48:12 h | 8.616 | 16/36 | |
| 2004-08-01 | Skyline 50k Endurance RunUnited States | 50km | 5:22:03 h | 9.315 | 49/149 |
| 2005-04-02 | 50mi | 9:16:06 h | 8.682 | 133/439 | |
| 2006-11-18 | 50mi | 10:36:22 h | 7.587 | 542/1016 | |
| 2007-05-19 | Watershed Preserve 12 Hr Trail RaceUnited States | 12h | 96.930 km | 8.078 | 10/56 |
| 2007-09-02 | Run On The Sly 50 KmUnited States | 50km | 6:16:55 h | 7.959 | 33/89 |
| 2008-03-01 | 50km | 5:53:24 h | 8.489 | 32/55 | |
| 2008-03-22 | 50km | 6:05:04 h | 8.218 | 36/68 | |
| 2008-04-05 | 50mi | 9:31:26 h | 8.449 | 170/467 | |
| 2008-04-19 | Ruth Anderson Ultra 50kmUnited States | 50km | 5:07:44 h | 9.749 | 8/30 |
| 2008-05-03 | 100km | 13:23:44 h | 7.465 | 170/282 | |
| 2008-07-05 | 50km | 5:21:54 h | 9.320 | 27/65 | |
| 2008-08-03 | Skyline 50k Endurance RunUnited States | 50km | 5:18:16 h | 9.426 | 33/120 |
| 2008-09-20 | 50km | 5:47:25 h | 8.635 | 53/178 | |
| 2009-02-07 | 50km | 5:52:10 h | 8.519 | 48/87 | |
| 2009-02-28 | 50km | 6:07:19 h | 8.167 | 40/95 | |
| 2009-04-04 | American River 50 Mile Endurance RunUnited States | 50mi | 8:59:59 h | 8.941 | 135/510 |
| 2009-06-06 | 50km | 6:39:53 h | 7.502 | 58/106 | |
| 2009-07-18 | 50km | 7:09:07 h | 6.991 | 27/165 | |
| 2009-08-02 | Skyline 50k Endurance RunUnited States | 50km | 5:26:09 h | 9.198 | 51/122 |
| 2009-12-19 | 50km | 5:21:40 h | 9.326 | 36/107 | |
| 2010-01-23 | 50km | 6:32:10 h | 7.650 | 25/42 | |
| 2010-02-06 | 50km | 5:38:18 h | 8.868 | 34/100 | |
| 2010-04-18 | Skyline to the Sea 50kmUnited States | 50km | 5:27:38 h | 9.157 | 54/191 |
| 2010-05-01 | 100km | 12:28:39 h | 8.014 | 111/268 | |
| 2010-05-23 | 50km | 6:42:18 h | 7.457 | 8/22 | |
| 2010-06-13 | 50km | 6:05:35 h | 8.206 | 8/23 | |
| 2010-08-01 | 50km | 5:20:45 h | 9.353 | 52/164 | |
| 2010-08-14 | 50km | 5:48:07 h | 8.618 | 5/22 | |
| 2010-08-28 | 100mi | 29:51:14 h | 5.391 | 59/78 | |
| 2012-03-17 | 50km | 5:38:50 h | 8.854 | 19/46 | |
| 2012-05-05 | 100km | 15:33:31 h | 6.427 | 190/264 | |
| 2013-01-05 | 50km | 5:44:41 h | 8.704 | 15/47 | |
| 2013-05-11 | 50km | 5:57:08 h | 8.400 | 28/129 | |
| 2013-05-19 | 50km | 7:19:12 h | 6.831 | 74/166 | |
| 2013-06-02 | 50km | 5:40:04 h | 8.822 | 10/32 | |
| 2013-08-11 | 50km | 5:37:05 h | 8.900 | 92/240 | |
| 2013-08-24 | 31.5mi | 6:35:54 h | 7.683 | 105/181 | |
| 2015-03-27 | 50km | 6:32:04 h | 7.652 | 25/38 | |
| 2015-04-18 | 50km | 9:03:43 h | 5.518 | 112/152 | |
| 2015-05-16 | 50mi | 10:55:36 h | 7.364 | 57/95 | |
| 2016-03-25 | 50km | 6:51:52 h | 7.284 | 18/37 | |
| 2019-07-13 | Siskiyou Out Back 50 km Trail RunUnited States | 50km | 7:00:42 h | 7.131 | 114/186 |
| 2019-08-04 | 50km | 6:30:29 h | 7.683 | 80/167 | |
| 2020-06-20 | 50mi | 14:09:15 h | 5.685 | 60/61 |
Showing 1–50 of 70